M I D A S
Marine Information and Data Acquisition System
Tripno 1779 of the Zeeleeuw from 2009-09-17 06:40:37 to 2009-09-17 13:40:42
Back to CruiseResearch ActivitiesStationsMapUnderway DataData graphs

EquipmentUnitsComment
TimeDGPSUTC
LatitudeDGPSDM.mWGS84
LongitudeDGPSDM.mWGS84
TemperatureSBE03/SBE38deg celciusITS90
ConductivitySBE21S/mITS90
SalinitySBE21 Practical Salinity Units
ChlorophylAChelsea fluorimeterg/lCalibrated in Aceton
Missing or incorrect values are displayed as -999
Sea surface data collected by the RV Zeeleeuw from 2009-09-17 06:42:19 to 2009-09-17 13:50:49
Time Latitude Longitude Temperature Conductivity Salinity ChlorophylA
2009-09-17 06:43:27 51°13.677 2°55.888 20.0406 0.031197 0.166292 36.052225
2009-09-17 06:44:27 51°13.707 2°55.795 20.0498 0.031197 0.166292 36.017401
2009-09-17 06:45:27 51°13.758 2°55.711 20.0772 0.031197 0.166297 35.982577
2009-09-17 06:46:27 51°13.806 2°55.663 20.0361 0.031197 0.166319 35.947753
2009-09-17 06:47:27 51°13.873 2°55.607 20.0589 0.031197 0.166324 35.912929
2009-09-17 06:48:27 51°13.929 2°55.602 20.0711 0.031197 0.16633 35.878105
2009-09-17 06:49:27 51°13.949 2°55.61 20.0302 0.031197 0.166341 35.843281
2009-09-17 06:50:25 51°13.957 2°55.557 19.9188 0.031197 0.166421 35.808457
2009-09-17 06:51:25 51°14.036 2°55.479 20.0237 0.031197 0.166429 35.773633
2009-09-17 06:52:24 51°14.171 2°55.359 19.9813 0.031197 0.166487 35.703984
2009-09-17 06:53:24 51°14.292 2°55.179 19.9369 0.031197 0.166625 35.634336
2009-09-17 06:54:24 51°14.396 2°54.951 19.9323 0.0313 0.168072 35.564688
2009-09-17 06:55:24 51°14.518 2°54.749 19.9244 0.031197 0.167749 35.599512
2009-09-17 06:56:24 51°14.653 2°54.564 19.9092 0.0313 0.168385 35.529864
2009-09-17 06:57:24 51°14.795 2°54.39 19.912 0.031197 0.167912 35.460216
2009-09-17 06:58:24 51°14.938 2°54.223 19.9281 0.0313 0.16852 41.310657
2009-09-17 06:59:24 51°15.084 2°54.081 19.9328 0.031402 0.169106 39.256038
2009-09-17 07:00:24 51°15.226 2°53.95 19.9269 0.031505 0.169727 37.863076
2009-09-17 07:01:24 51°15.375 2°53.815 19.9333 0.031402 0.169163 38.907797
2009-09-17 07:02:24 51°15.522 2°53.67 19.9401 0.031402 0.169206 41.066889
2009-09-17 07:03:24 51°15.669 2°53.526 19.9378 0.031402 0.169245 43.260804
2009-09-17 07:04:24 51°15.818 2°53.382 19.9452 0.031711 0.170941 44.201054
2009-09-17 07:05:24 51°15.975 2°53.277 19.9594 0.031608 0.170386 45.002007
2009-09-17 07:06:24 51°16.128 2°53.166 19.9496 0.031608 0.170437 45.698488
2009-09-17 07:07:24 51°16.277 2°53.06 19.9655 0.031814 0.171593 42.738443
2009-09-17 07:08:24 51°16.43 2°52.951 19.9722 0.031402 0.169354 42.007138
2009-09-17 07:09:24 51°16.584 2°52.847 19.9814 0.0313 0.168826 42.842915
2009-09-17 07:10:24 51°16.735 2°52.746 19.9925 0.031505 0.169978 43.504572
2009-09-17 07:11:24 51°16.88 2°52.65 19.9961 0.031608 0.170566 42.599147
2009-09-17 07:12:24 51°17.031 2°52.551 20.0011 0.031402 0.169451 43.191156
2009-09-17 07:13:24 51°17.184 2°52.479 20.0127 0.031608 0.170575 42.842915
2009-09-17 07:14:24 51°17.342 2°52.458 20.0169 0.031402 0.169473 43.22598
2009-09-17 07:15:24 51°17.498 2°52.458 20.0316 0.0313 0.168957 43.748341
2009-09-17 07:16:24 51°17.653 2°52.456 20.031 0.031402 0.169533 44.270702
2009-09-17 07:17:24 51°17.805 2°52.473 20.0471 0.031197 0.168437 44.375174
2009-09-17 07:18:24 51°17.953 2°52.496 20.0491 0.031711 0.17127 43.330452
2009-09-17 07:19:24 51°18.089 2°52.56 20.0615 0.031608 0.170716 43.643869
2009-09-17 07:20:24 51°18.187 2°52.724 20.0643 0.031402 0.169602 43.574221
2009-09-17 07:21:24 51°18.263 2°52.929 20.0801 0.0313 0.169079 43.365276
2009-09-17 07:22:24 51°18.343 2°53.133 20.0859 0.031197 0.168522 43.156332
2009-09-17 07:23:24 51°18.425 2°53.338 20.0906 0.0313 0.169085 43.121508
2009-09-17 07:24:24 51°18.503 2°53.547 20.1055 0.031197 0.168551 42.947388
2009-09-17 07:25:24 51°18.582 2°53.754 20.1114 0.031402 0.169691 42.877739
2009-09-17 07:26:24 51°18.653 2°53.967 20.119 0.031094 0.168039 42.808091
2009-09-17 07:27:24 51°18.708 2°54.197 20.122 0.033049 0.178752 42.773267
2009-09-17 07:28:24 51°18.761 2°54.427 20.1324 0.031505 0.170328 41.76337
2009-09-17 07:29:24 51°18.815 2°54.658 20.1482 0.0313 0.169182 41.972314
2009-09-17 07:30:24 51°18.868 2°54.888 20.1548 0.031608 0.1709 41.972314
2009-09-17 07:31:24 51°18.921 2°55.115 20.1613 0.032226 0.174316 42.076786
2009-09-17 07:32:24 51°18.975 2°55.344 20.1647 0.032329 0.17486 42.216082
2009-09-17 07:33:24 51°19.03 2°55.568 20.1725 0.03202 0.173193 42.11161
2009-09-17 07:34:24 51°19.088 2°55.796 20.1936 0.031711 0.171522 42.633971
2009-09-17 07:35:24 51°19.144 2°56.022 20.1986 0.031917 0.172673 42.494675
2009-09-17 07:36:24 51°19.205 2°56.25 20.1994 0.031505 0.170443 42.738443
2009-09-17 07:37:24 51°19.263 2°56.477 20.2166 0.031608 0.171019 42.738443
2009-09-17 07:38:24 51°19.32 2°56.707 20.2304 0.031608 0.171048 42.738443
2009-09-17 07:39:24 51°19.378 2°56.931 20.2286 0.031608 0.171045 42.564323
2009-09-17 07:40:24 51°19.436 2°57.157 20.2423 0.031711 0.171615 42.564323
2009-09-17 07:41:24 51°19.496 2°57.381 20.2523 0.031402 0.169975 42.599147
2009-09-17 07:42:24 51°19.554 2°57.607 20.2631 0.031505 0.170541 42.355379
2009-09-17 07:43:24 51°19.613 2°57.833 20.271 0.031608 0.171129 42.390203
2009-09-17 07:44:24 51°19.67 2°58.061 20.272 0.032123 0.173973 42.494675
2009-09-17 07:45:24 51°19.722 2°58.296 20.2799 0.031402 0.170032 42.599147
2009-09-17 07:46:24 51°19.773 2°58.531 20.2874 0.031711 0.171746 42.668795
2009-09-17 07:47:24 51°19.824 2°58.767 20.2999 0.031711 0.171725 41.310657
2009-09-17 07:48:24 51°19.879 2°59.001 20.3057 0.03274 0.177389 42.285731
2009-09-17 07:49:24 51°19.939 2°59.232 20.3272 0.031608 0.171222 42.425027
2009-09-17 07:50:24 51°19.998 2°59.464 20.3243 0.031197 0.168967 42.703619
2009-09-17 07:51:24 51°20.056 2°59.696 20.3383 0.031814 0.172392 42.808091
2009-09-17 07:52:24 51°20.115 2°59.926 20.351 0.031505 0.170697 42.982212
2009-09-17 07:53:24 51°20.176 3°0.155 20.3568 0.033769 0.183096 43.086684
2009-09-17 07:54:24 51°20.234 3°0.384 20.3724 0.032123 0.174106 43.22598
2009-09-17 07:55:24 51°20.294 3°0.617 20.3759 0.031402 0.170173 43.365276
2009-09-17 07:56:24 51°20.352 3°0.85 20.3806 0.033666 0.182604 42.668795
2009-09-17 07:57:24 51°20.412 3°1.079 20.397 0.031711 0.171894 43.643869
2009-09-17 07:58:24 51°20.47 3°1.313 20.4065 0.031505 0.170787 43.017036
2009-09-17 07:59:24 51°20.53 3°1.54 20.4111 0.03274 0.177567 43.295628
2009-09-17 08:00:24 51°20.572 3°1.778 20.4282 0.032226 0.174745 43.609045
2009-09-17 08:01:24 51°20.606 3°2.027 20.4343 0.032123 0.174186 43.887637
2009-09-17 08:02:24 51°20.634 3°2.278 20.4347 0.03202 0.173676 44.096581
2009-09-17 08:03:24 51°20.666 3°2.529 20.451 0.033975 0.18442 44.34035
2009-09-17 08:04:24 51°20.697 3°2.779 20.4614 0.031402 0.170309 44.549294
2009-09-17 08:05:24 51°20.733 3°3.027 20.4631 0.031814 0.172583 44.967183
2009-09-17 08:06:24 51°20.765 3°3.277 20.4758 0.031711 0.172037 45.071655
2009-09-17 08:07:24 51°20.796 3°3.528 20.4859 0.03202 0.173762 45.036831
2009-09-17 08:08:24 51°20.828 3°3.777 20.4961 0.031505 0.170958 45.454719
2009-09-17 08:09:24 51°20.862 3°4.026 20.5103 0.03202 0.173803 45.489544
2009-09-17 08:10:24 51°20.897 3°4.277 20.5085 0.031917 0.173234 45.698488
2009-09-17 08:11:24 51°20.928 3°4.529 20.5289 0.0313 0.169833 45.872608
2009-09-17 08:12:24 51°20.956 3°4.785 20.5262 0.0313 0.169896 45.071655
2009-09-17 08:13:24 51°20.983 3°5.041 20.5384 0.031814 0.172732 45.071655
2009-09-17 08:14:24 51°21.01 3°5.296 20.5458 0.031402 0.170488 45.350247
2009-09-17 08:15:24 51°21.037 3°5.551 20.5598 0.031402 0.170514 45.280599
2009-09-17 08:16:24 51°21.067 3°5.808 20.562 0.03202 0.173921 45.663664
2009-09-17 08:17:24 51°21.098 3°6.064 20.5827 0.031608 0.171682 46.046728
2009-09-17 08:18:24 51°21.126 3°6.321 20.5835 0.032123 0.174488 46.325321
2009-09-17 08:19:24 51°21.146 3°6.578 20.5946 0.031505 0.171115 46.603913
2009-09-17 08:20:24 51°21.166 3°6.836 20.6045 0.031608 0.171743 46.673561
2009-09-17 08:21:24 51°21.185 3°7.097 20.6204 0.031917 0.173455 46.812858
2009-09-17 08:22:24 51°21.203 3°7.359 20.6182 0.031402 0.17059 47.021802
2009-09-17 08:23:24 51°21.222 3°7.623 20.6321 0.03202 0.174004 47.09145
2009-09-17 08:24:24 51°21.246 3°7.884 20.6397 0.032946 0.179146 47.26557
2009-09-17 08:25:24 51°21.267 3°8.148 20.6498 0.032432 0.176307 47.404866
2009-09-17 08:26:24 51°21.289 3°8.413 20.662 0.032329 0.175763 47.509339
2009-09-17 08:27:24 51°21.312 3°8.678 20.6732 0.032843 0.178655 47.648635
2009-09-17 08:28:24 51°21.334 3°8.946 20.6831 0.032637 0.177494 47.439691
2009-09-17 08:29:24 51°21.35 3°9.185 20.6876 0.031608 0.171904 47.578987
2009-09-17 08:30:24 51°21.389 3°9.255 20.6902 0.031402 0.170755 48.101348
2009-09-17 08:31:24 51°21.423 3°9.188 20.7124 0.0313 0.170232 48.484412
2009-09-17 08:32:24 51°21.456 3°9.117 20.7158 0.031197 0.169697 48.728181
2009-09-17 08:33:24 51°21.489 3°9.065 20.7277 0.0313 0.17027 48.832653
2009-09-17 08:34:24 51°21.515 3°9.025 20.7412 0.031505 0.171427 48.937125
2009-09-17 08:35:24 51°21.538 3°8.975 20.7502 0.031197 0.169755 48.971949
2009-09-17 08:36:24 51°21.561 3°8.88 20.7563 0.031094 0.169222 49.146069
2009-09-17 08:37:24 51°21.569 3°8.758 20.7688 0.0313 0.170354 49.076421
2009-09-17 08:38:24 51°21.582 3°8.637 20.7754 0.0313 0.170362 49.146069
2009-09-17 08:39:24 51°21.599 3°8.55 20.7908 0.031197 0.169827 49.215717
2009-09-17 08:40:24 51°21.626 3°8.478 20.7989 0.031094 0.169294 49.146069
2009-09-17 08:41:24 51°21.665 3°8.413 20.8082 0.031094 0.169309 49.285365
2009-09-17 08:42:24 51°21.708 3°8.343 20.8097 0.031094 0.169311 49.285365
2009-09-17 08:43:24 51°21.75 3°8.264 20.817 0.031197 0.169862 49.285365
2009-09-17 08:44:24 51°21.774 3°8.176 20.8286 0.031197 0.169922 49.285365
2009-09-17 08:45:24 51°21.797 3°8.1 20.8473 0.0313 0.170496 49.389838
2009-09-17 08:46:24 51°21.825 3°8.034 20.8599 0.031197 0.169951 49.389838
2009-09-17 08:47:36 51°21.867 3°7.951 20.8693 0.031197 0.169957 49.459486
2009-09-17 08:48:36 51°21.907 3°7.894 20.8672 0.030991 0.168842 49.529134
2009-09-17 08:49:36 51°21.949 3°7.846 20.8811 0.031094 0.169413 49.563958
2009-09-17 08:50:36 51°21.99 3°7.791 20.8879 0.030991 0.168873 49.598782
2009-09-17 08:51:36 51°22.03 3°7.74 20.9074 0.030888 0.168329 49.529134
2009-09-17 08:52:36 51°22.072 3°7.692 20.9181 0.030888 0.168334 49.563958
2009-09-17 08:53:36 51°22.113 3°7.64 20.9263 0.030991 0.168934 49.598782
2009-09-17 08:54:36 51°22.154 3°7.587 20.9347 0.031094 0.169531 49.66843
2009-09-17 08:55:36 51°22.198 3°7.536 20.9313 0.030888 0.168395 49.66843
2009-09-17 08:56:36 51°22.24 3°7.482 20.9503 0.030888 0.168409 49.66843
2009-09-17 08:57:36 51°22.279 3°7.432 20.9638 0.030888 0.168464 49.738078
2009-09-17 08:58:36 51°22.32 3°7.383 20.9774 0.030888 0.168455 49.703254
2009-09-17 08:59:36 51°22.361 3°7.334 20.9838 0.030888 0.168487 49.772902
2009-09-17 09:00:36 51°22.402 3°7.283 20.9994 0.030785 0.167947 49.807726
2009-09-17 09:01:36 51°22.441 3°7.228 20.998 0.030888 0.168527 49.877374
2009-09-17 09:02:36 51°22.477 3°7.174 21.0071 0.030888 0.168576 49.947022
2009-09-17 09:03:36 51°22.514 3°7.121 21.0248 0.031094 0.169714 49.981846
2009-09-17 09:04:36 51°22.554 3°7.069 21.0252 0.030888 0.168608 50.016671
2009-09-17 09:05:36 51°22.593 3°7.017 21.0493 0.030888 0.168616 50.051495
2009-09-17 09:06:36 51°22.634 3°6.967 21.0485 0.030991 0.169243 50.051495
2009-09-17 09:07:36 51°22.671 3°6.913 21.0574 0.0313 0.17094 50.051495
2009-09-17 09:08:36 51°22.702 3°6.856 21.0814 0.030991 0.169264 49.981846
2009-09-17 09:09:36 51°22.734 3°6.801 21.0827 0.030888 0.168735 50.051495
2009-09-17 09:10:36 51°22.769 3°6.75 21.092 0.030991 0.169319 49.981846
2009-09-17 09:11:36 51°22.804 3°6.7 21.1151 0.0313 0.171034 49.912198
2009-09-17 09:12:36 51°22.838 3°6.654 21.1182 0.030991 0.169356 49.981846
2009-09-17 09:13:36 51°22.871 3°6.608 21.132 0.030991 0.169403 50.086319
2009-09-17 09:14:36 51°22.903 3°6.564 21.1408 0.030785 0.168298 50.086319
2009-09-17 09:15:36 51°22.932 3°6.543 21.1555 0.030785 0.168301 50.016671
2009-09-17 09:16:36 51°22.937 3°6.53 21.1549 0.030682 0.167789 50.051495
2009-09-17 09:17:36 51°22.932 3°6.521 21.1637 0.030682 0.167783 50.051495
2009-09-17 09:18:36 51°22.921 3°6.513 21.1805 0.030682 0.16782 50.051495
2009-09-17 09:19:36 51°22.905 3°6.503 21.1932 0.031094 0.170139 50.016671
2009-09-17 09:20:36 51°22.912 3°6.427 21.1966 0.0313 0.171251 50.051495
2009-09-17 09:21:36 51°22.906 3°6.222 21.2129 0.031094 0.170209 50.155967
2009-09-17 09:22:36 51°22.872 3°5.948 21.2283 0.031403 0.17189 50.121143
2009-09-17 09:23:36 51°22.821 3°5.67 21.2429 0.032843 0.179904 50.121143
2009-09-17 09:24:36 51°22.767 3°5.394 21.2411 0.033358 0.182718 50.155967
2009-09-17 09:25:36 51°22.743 3°5.116 21.2586 0.033461 0.183339 50.434559
2009-09-17 09:26:36 51°22.732 3°4.839 21.2498 0.035313 0.193686 50.469383
2009-09-17 09:27:36 51°22.651 3°4.583 21.2501 0.031814 0.174287 50.852448
2009-09-17 09:28:36 51°22.54 3°4.355 21.2573 0.035313 0.19374 50.7828
2009-09-17 09:29:36 51°22.432 3°4.121 21.2516 0.034696 0.190312 50.678328
2009-09-17 09:30:36 51°22.329 3°3.879 21.2995 0.033255 0.182309 50.225615
2009-09-17 09:31:36 51°22.234 3°3.635 21.281 0.032432 0.177739 50.364911
2009-09-17 09:32:36 51°22.136 3°3.39 21.3138 0.033564 0.184059 50.434559
2009-09-17 09:33:36 51°22.039 3°3.144 21.3125 0.033461 0.183527 50.469383
2009-09-17 09:34:36 51°21.951 3°2.888 21.2922 0.031814 0.174368 50.539031
2009-09-17 09:35:36 51°21.87 3°2.628 21.3595 0.03202 0.175582 50.504207
2009-09-17 09:36:36 51°21.792 3°2.365 21.3768 0.032843 0.180143 50.608679
2009-09-17 09:37:36 51°21.72 3°2.102 21.3994 0.031711 0.173889 50.852448
2009-09-17 09:38:36 51°21.652 3°1.838 21.4173 0.03449 0.1893 50.504207
2009-09-17 09:39:36 51°21.588 3°1.577 21.4366 0.031814 0.174473 50.7828
2009-09-17 09:40:36 51°21.51 3°1.324 21.4578 0.032637 0.179093 51.026568
2009-09-17 09:41:36 51°21.413 3°1.09 21.4764 0.034593 0.189968 50.434559
2009-09-17 09:42:36 51°21.314 3°0.859 21.4909 0.032637 0.179142 50.539031
2009-09-17 09:43:36 51°21.218 3°0.623 21.5096 0.033769 0.18544 50.608679
2009-09-17 09:44:36 51°21.123 3°0.385 21.1683 0.034181 0.187728 49.529134
2009-09-17 09:45:36 51°21.027 3°0.145 21.223 0.031711 0.174012 49.66843
2009-09-17 09:46:36 51°20.932 2°59.906 21.3058 0.031917 0.175194 50.121143
2009-09-17 09:47:36 51°20.839 2°59.667 21.2856 0.032226 0.176906 50.260439
2009-09-17 09:48:36 51°20.743 2°59.433 21.2967 0.035828 0.196961 50.434559
2009-09-17 09:49:33 51°20.655 2°59.207 21.252 0.032123 0.176375 50.643503
2009-09-17 09:50:53 51°20.533 2°58.886 21.3427 0.034181 0.187816 50.678328
2009-09-17 09:51:54 51°20.441 2°58.643 21.3366 0.031608 0.173541 50.817624
2009-09-17 09:52:54 51°20.35 2°58.407 21.3168 0.031711 0.174075 50.713152
2009-09-17 09:53:54 51°20.258 2°58.168 21.2554 0.03274 0.17986 50.747976
2009-09-17 09:54:54 51°20.167 2°57.936 21.3622 0.03202 0.175835 49.84255
2009-09-17 09:55:54 51°20.077 2°57.705 21.3192 0.034901 0.191876 49.738078
2009-09-17 09:56:54 51°19.984 2°57.474 21.2786 0.032432 0.17818 49.807726
2009-09-17 09:57:54 51°19.893 2°57.242 21.3944 0.034593 0.190203 50.086319
2009-09-17 09:58:54 51°19.8 2°57.015 21.3399 0.032226 0.177087 48.971949
2009-09-17 09:59:53 51°19.711 2°56.787 21.3539 0.031814 0.174781 49.320189
2009-09-17 10:00:53 51°19.622 2°56.553 21.3519 0.034078 0.187437 49.459486
2009-09-17 10:01:54 51°19.53 2°56.321 21.3631 0.034284 0.188573 49.598782
2009-09-17 10:02:54 51°19.442 2°56.09 21.3873 0.031814 0.174833 49.66843
2009-09-17 10:03:54 51°19.356 2°55.858 21.3665 0.033666 0.185151 49.738078
2009-09-17 10:04:54 51°19.267 2°55.631 21.3312 0.031814 0.17486 49.66843
2009-09-17 10:05:54 51°19.183 2°55.4 21.433 0.033152 0.182327 49.49431
2009-09-17 10:06:53 51°19.098 2°55.176 21.381 0.032329 0.177778 49.146069
2009-09-17 10:07:54 51°19.015 2°54.941 21.3886 0.031917 0.175449 49.250541
2009-09-17 10:08:54 51°18.929 2°54.711 21.4281 0.032226 0.177225 49.250541
2009-09-17 10:09:54 51°18.844 2°54.483 21.4205 0.032535 0.178935 49.285365
2009-09-17 10:10:54 51°18.761 2°54.249 21.4178 0.031505 0.173192 48.902301
2009-09-17 10:11:54 51°18.679 2°54.018 21.4514 0.031711 0.174343 48.937125
2009-09-17 10:12:54 51°18.591 2°53.79 21.3853 0.03449 0.189856 48.693356
2009-09-17 10:13:54 51°18.508 2°53.561 21.4335 0.033975 0.187004 49.006773
2009-09-17 10:14:54 51°18.426 2°53.328 21.4542 0.033358 0.183574 48.867477
2009-09-17 10:15:53 51°18.345 2°53.103 21.4724 0.033461 0.184131 48.484412
2009-09-17 10:16:54 51°18.264 2°52.868 21.5042 0.034284 0.188771 48.136172
2009-09-17 10:17:54 51°18.183 2°52.635 21.457 0.03696 0.203718 48.658532
2009-09-17 10:18:54 51°18.104 2°52.406 21.4684 0.034387 0.189358 49.006773
2009-09-17 10:19:54 51°18.021 2°52.176 21.5406 0.034901 0.192243 48.867477
2009-09-17 10:20:54 51°17.93 2°51.955 21.4806 0.033666 0.185329 49.389838
2009-09-17 10:21:54 51°17.843 2°51.729 21.5501 0.034181 0.188237 49.459486
2009-09-17 10:22:54 51°17.756 2°51.504 21.4933 0.032226 0.177348 49.49431
2009-09-17 10:23:54 51°17.667 2°51.284 21.5594 0.033358 0.183686 49.389838
2009-09-17 10:24:54 51°17.581 2°51.063 21.5282 0.031917 0.175657 49.807726
2009-09-17 10:25:54 51°17.498 2°50.837 21.5463 0.036033 0.198638 49.912198
2009-09-17 10:26:54 51°17.412 2°50.615 21.5297 0.031917 0.175644 49.947022
2009-09-17 10:27:54 51°17.329 2°50.397 21.5304 0.037165 0.205001 49.912198
2009-09-17 10:28:54 51°17.236 2°50.188 21.5576 0.03202 0.176287 49.877374
2009-09-17 10:29:54 51°17.13 2°49.993 21.5566 0.03274 0.180286 49.772902
2009-09-17 10:30:54 51°17.022 2°49.801 21.5664 0.031917 0.175696 49.738078
2009-09-17 10:31:54 51°16.915 2°49.615 21.6128 0.035313 0.194654 48.345116
2009-09-17 10:32:54 51°16.808 2°49.434 21.6003 0.033049 0.182043 48.763005
2009-09-17 10:33:53 51°16.706 2°49.252 21.6227 0.035107 0.193524 48.728181
2009-09-17 10:34:54 51°16.602 2°49.066 21.5858 0.035725 0.196949 48.449588
2009-09-17 10:35:54 51°16.501 2°48.882 21.6292 0.03202 0.176324 48.484412
2009-09-17 10:36:54 51°16.397 2°48.699 21.6413 0.032432 0.178589 48.867477
2009-09-17 10:37:54 51°16.301 2°48.509 21.6341 0.031608 0.174041 48.937125
2009-09-17 10:38:53 51°16.217 2°48.309 21.6543 0.031403 0.172849 49.215717
2009-09-17 10:39:54 51°16.134 2°48.093 21.6485 0.031608 0.174014 49.285365
2009-09-17 10:40:54 51°16.051 2°47.887 21.6492 0.032843 0.180897 49.389838
2009-09-17 10:41:54 51°15.966 2°47.682 21.6743 0.0313 0.172328 49.006773
2009-09-17 10:42:54 51°15.88 2°47.472 21.6837 0.031608 0.174023 49.041597
2009-09-17 10:43:54 51°15.792 2°47.262 21.6953 0.031403 0.172855 49.111245
2009-09-17 10:44:54 51°15.706 2°47.049 21.7152 0.033564 0.184969 48.971949
2009-09-17 10:45:54 51°15.631 2°46.829 21.7154 0.031505 0.173451 49.076421
2009-09-17 10:46:54 51°15.563 2°46.603 21.7209 0.031917 0.175773 49.076421
2009-09-17 10:47:54 51°15.494 2°46.38 21.7335 0.031814 0.175182 49.006773
2009-09-17 10:48:54 51°15.422 2°46.157 21.7429 0.031814 0.175197 48.937125
2009-09-17 10:49:53 51°15.351 2°45.939 21.7538 0.0313 0.17231 48.971949
2009-09-17 10:50:54 51°15.281 2°45.714 21.7634 0.033255 0.183244 49.006773
2009-09-17 10:51:54 51°15.209 2°45.492 21.7654 0.034901 0.192378 49.111245
2009-09-17 10:52:54 51°15.138 2°45.267 21.7774 0.033461 0.184356 48.971949
2009-09-17 10:53:54 51°15.063 2°45.042 21.7881 0.034284 0.188969 48.971949
2009-09-17 10:54:54 51°14.991 2°44.821 21.7853 0.034901 0.192442 48.728181
2009-09-17 10:55:54 51°14.922 2°44.596 21.8015 0.031917 0.175767 48.902301
2009-09-17 10:56:54 51°14.851 2°44.367 21.8006 0.031814 0.175194 49.076421
2009-09-17 10:57:54 51°14.779 2°44.141 21.8122 0.037165 0.205127 48.902301
2009-09-17 10:58:54 51°14.707 2°43.92 21.8244 0.033049 0.182129 48.763005
2009-09-17 10:59:54 51°14.638 2°43.695 21.8288 0.033975 0.187282 48.867477
2009-09-17 11:00:54 51°14.566 2°43.468 21.8369 0.03202 0.176397 49.041597
2009-09-17 11:01:54 51°14.497 2°43.238 21.8458 0.032123 0.176982 48.902301
2009-09-17 11:02:54 51°14.425 2°43.004 21.8535 0.031505 0.173493 48.937125
2009-09-17 11:03:54 51°14.354 2°42.774 21.8645 0.031403 0.172954 49.076421
2009-09-17 11:04:54 51°14.283 2°42.548 21.8728 0.033461 0.184469 48.902301
2009-09-17 11:05:54 51°14.211 2°42.324 21.8797 0.034284 0.189022 48.937125
2009-09-17 11:06:54 51°14.136 2°42.104 21.885 0.033461 0.184427 48.971949
2009-09-17 11:07:54 51°14.064 2°41.879 21.8897 0.033358 0.183866 47.857579
2009-09-17 11:08:54 51°13.992 2°41.656 21.9019 0.034593 0.190784 48.867477
2009-09-17 11:09:54 51°13.921 2°41.43 21.9077 0.031917 0.175861 48.902301
2009-09-17 11:10:54 51°13.85 2°41.205 21.9121 0.032329 0.178178 49.041597
2009-09-17 11:11:54 51°13.753 2°41.008 21.9207 0.031917 0.175889 49.041597
2009-09-17 11:12:54 51°13.641 2°40.829 21.9316 0.031814 0.175328 48.937125
2009-09-17 11:13:54 51°13.528 2°40.653 21.9375 0.033769 0.186241 49.111245
2009-09-17 11:14:53 51°13.418 2°40.474 21.9447 0.031917 0.175907 49.146069
2009-09-17 11:15:54 51°13.3 2°40.301 21.9533 0.034696 0.191416 49.250541
2009-09-17 11:16:54 51°13.181 2°40.129 21.9574 0.032535 0.179356 49.285365
2009-09-17 11:17:54 51°13.065 2°39.956 21.9669 0.035828 0.197778 48.275468
2009-09-17 11:18:54 51°12.949 2°39.784 21.9728 0.033461 0.184534 48.728181
2009-09-17 11:19:54 51°12.836 2°39.611 21.9824 0.032946 0.181682 48.832653
2009-09-17 11:20:54 51°12.724 2°39.436 21.9893 0.035416 0.195473 49.006773
2009-09-17 11:21:54 51°12.607 2°39.268 21.985 0.032843 0.18107 49.250541
2009-09-17 11:22:54 51°12.492 2°39.096 22.0002 0.033872 0.186838 49.076421
2009-09-17 11:23:54 51°12.379 2°38.919 22.008 0.033255 0.183385 49.111245
2009-09-17 11:24:54 51°12.265 2°38.742 22.0184 0.035107 0.193725 49.076421
2009-09-17 11:25:54 51°12.148 2°38.571 22.0259 0.036239 0.200067 49.076421
2009-09-17 11:26:54 51°12.032 2°38.397 22.037 0.033255 0.183372 49.076421
2009-09-17 11:27:54 51°11.912 2°38.232 22.0407 0.031608 0.17415 48.658532
2009-09-17 11:28:54 51°11.79 2°38.07 22.0474 0.032432 0.178795 48.763005
2009-09-17 11:29:54 51°11.668 2°37.9 22.0538 0.0313 0.17246 48.867477
2009-09-17 11:30:54 51°11.542 2°37.734 22.0653 0.031094 0.171324 48.971949
2009-09-17 11:31:54 51°11.416 2°37.568 22.074 0.032535 0.179356 48.902301
2009-09-17 11:32:54 51°11.292 2°37.403 22.0816 0.034387 0.189727 49.006773
2009-09-17 11:33:54 51°11.166 2°37.246 22.0873 0.03202 0.176499 49.076421
2009-09-17 11:34:54 51°11.042 2°37.086 22.094 0.0313 0.172457 48.971949
2009-09-17 11:35:54 51°10.921 2°36.916 22.104 0.035107 0.193687 49.006773
2009-09-17 11:36:54 51°10.796 2°36.759 22.1054 0.031711 0.174795 48.867477
2009-09-17 11:37:54 51°10.641 2°36.684 22.1146 0.031403 0.173032 48.797829
2009-09-17 11:38:54 51°10.477 2°36.676 22.1198 0.031608 0.174168 48.937125
2009-09-17 11:39:54 51°10.308 2°36.741 22.1342 0.032432 0.178723 49.180893
2009-09-17 11:40:54 51°10.141 2°36.808 22.1405 0.033872 0.186822 49.285365
2009-09-17 11:41:54 51°9.969 2°36.858 22.1479 0.031505 0.173647 49.355013
2009-09-17 11:42:54 51°9.795 2°36.877 22.1545 0.035622 0.196646 49.355013
2009-09-17 11:43:54 51°9.623 2°36.901 22.1691 0.0313 0.172535 49.285365
2009-09-17 11:44:54 51°9.47 2°36.931 22.1754 0.03202 0.176526 49.424662
2009-09-17 11:45:54 51°9.405 2°36.961 22.1841 0.031814 0.17538 49.389838
2009-09-17 11:46:54 51°9.393 2°36.922 22.1887 0.032432 0.17882 49.424662
2009-09-17 11:47:54 51°9.418 2°36.887 22.1883 0.0313 0.172478 49.424662
2009-09-17 11:48:54 51°9.464 2°36.834 22.2028 0.032843 0.181175 49.424662
2009-09-17 11:49:54 51°9.508 2°36.789 22.207 0.031403 0.173165 49.459486
2009-09-17 11:50:54 51°9.547 2°36.745 22.217 0.031608 0.174298 49.424662
2009-09-17 11:51:54 51°9.587 2°36.709 22.2223 0.031505 0.173707 49.49431
2009-09-17 11:53:05 51°9.639 2°36.674 22.2314 0.031403 0.173149 49.66843
2009-09-17 11:54:05 51°9.686 2°36.648 22.2397 0.031094 0.171408 49.563958
2009-09-17 11:55:05 51°9.732 2°36.619 22.2524 0.031608 0.174298 49.459486
2009-09-17 11:56:05 51°9.78 2°36.591 22.2485 0.031197 0.172061 49.529134
2009-09-17 11:57:05 51°9.827 2°36.56 22.2689 0.031711 0.174886 49.424662
2009-09-17 11:58:05 51°9.875 2°36.531 22.265 0.031608 0.174283 49.424662
2009-09-17 11:59:05 51°9.923 2°36.505 22.2783 0.0313 0.172628 49.49431
2009-09-17 12:00:05 51°9.972 2°36.483 22.2837 0.0313 0.172619 49.529134
2009-09-17 12:01:05 51°10.025 2°36.473 22.2962 0.031505 0.173759 49.459486
2009-09-17 12:02:05 51°10.077 2°36.486 22.3047 0.030888 0.170355 49.49431
2009-09-17 12:03:05 51°10.119 2°36.528 22.3075 0.030682 0.169201 49.320189
2009-09-17 12:04:05 51°10.163 2°36.573 22.3153 0.030682 0.169222 49.285365
2009-09-17 12:05:05 51°10.205 2°36.635 22.3121 0.030579 0.168661 49.424662
2009-09-17 12:06:05 51°10.235 2°36.702 22.3247 0.030888 0.170387 49.006773
2009-09-17 12:07:05 51°10.265 2°36.762 22.3353 0.030579 0.168661 49.041597
2009-09-17 12:08:05 51°10.296 2°36.824 22.3312 0.030579 0.16869 49.111245
2009-09-17 12:09:05 51°10.314 2°36.904 22.3409 0.030579 0.168699 49.215717
2009-09-17 12:10:05 51°10.326 2°36.994 22.3563 0.030476 0.16813 49.111245
2009-09-17 12:11:05 51°10.332 2°37.085 22.3571 0.030476 0.1681 49.180893
2009-09-17 12:12:05 51°10.336 2°37.179 22.361 0.030476 0.168098 49.215717
2009-09-17 12:13:05 51°10.339 2°37.272 22.3749 0.030476 0.168083 49.250541
2009-09-17 12:14:05 51°10.342 2°37.36 22.3774 0.030476 0.168179 49.250541
2009-09-17 12:15:05 51°10.342 2°37.44 22.3847 0.030373 0.16756 49.285365
2009-09-17 12:16:05 51°10.341 2°37.518 22.3949 0.030373 0.167563 49.285365
2009-09-17 12:17:05 51°10.342 2°37.596 22.4043 0.030373 0.167557 49.285365
2009-09-17 12:18:05 51°10.344 2°37.674 22.4025 0.030373 0.167584 49.180893
2009-09-17 12:19:05 51°10.346 2°37.754 22.4083 0.030373 0.167554 49.250541
2009-09-17 12:20:05 51°10.344 2°37.832 22.4247 0.030476 0.168209 49.215717
2009-09-17 12:21:05 51°10.344 2°37.908 22.4378 0.030373 0.167624 49.285365
2009-09-17 12:22:05 51°10.343 2°37.977 22.4299 0.030373 0.167633 48.902301
2009-09-17 12:23:05 51°10.342 2°38.046 22.4427 0.030373 0.167642 48.937125
2009-09-17 12:24:05 51°10.346 2°38.131 22.4464 0.030373 0.167677 49.006773
2009-09-17 12:25:05 51°10.344 2°38.222 22.4568 0.030373 0.167668 49.006773
2009-09-17 12:26:05 51°10.317 2°38.301 22.4539 0.030373 0.167697 49.041597
2009-09-17 12:27:05 51°10.275 2°38.354 22.4612 0.030373 0.167715 49.146069
2009-09-17 12:28:05 51°10.23 2°38.384 22.4694 0.030373 0.167665 49.180893
2009-09-17 12:29:05 51°10.197 2°38.375 22.4628 0.030271 0.167165 49.250541
2009-09-17 12:30:05 51°10.182 2°38.369 22.4692 0.030271 0.167194 49.250541
2009-09-17 12:31:05 51°10.17 2°38.372 22.4863 0.030271 0.167188 49.215717
2009-09-17 12:32:05 51°10.161 2°38.378 22.4916 0.030271 0.167243 49.250541
2009-09-17 12:33:05 51°10.153 2°38.384 22.4861 0.030271 0.167255 49.355013
2009-09-17 12:34:05 51°10.145 2°38.355 22.4879 0.031403 0.173581 49.389838
2009-09-17 12:35:05 51°10.181 2°38.311 22.4742 0.031197 0.172472 49.389838
2009-09-17 12:36:05 51°10.206 2°38.307 22.4923 0.031608 0.174706 49.355013
2009-09-17 12:37:05 51°10.26 2°38.306 22.5164 0.030682 0.169466 49.459486
2009-09-17 12:38:05 51°10.329 2°38.438 22.5256 0.031608 0.17474 49.006773
2009-09-17 12:39:05 51°10.4 2°38.629 22.5397 0.030888 0.170657 49.285365
2009-09-17 12:40:05 51°10.458 2°38.838 22.5544 0.030682 0.169507 49.320189
2009-09-17 12:41:05 51°10.517 2°39.04 22.5753 0.030579 0.168955 49.355013
2009-09-17 12:42:05 51°10.574 2°39.228 22.5894 0.030579 0.16891 49.355013
2009-09-17 12:43:05 51°10.607 2°39.33 22.6069 0.030476 0.168364 49.355013
2009-09-17 12:44:05 51°10.621 2°39.387 22.6268 0.030476 0.168378 49.459486
2009-09-17 12:45:05 51°10.633 2°39.448 22.6465 0.030374 0.167805 49.459486
2009-09-17 12:46:05 51°10.663 2°39.598 22.6649 0.030374 0.167785 49.49431
2009-09-17 12:47:05 51°10.719 2°39.845 22.6788 0.030374 0.167814 49.459486
2009-09-17 12:48:05 51°10.785 2°40.136 22.6985 0.030374 0.167817 49.529134
2009-09-17 12:49:05 51°10.853 2°40.433 22.7239 0.030374 0.167814 49.529134
2009-09-17 12:50:05 51°10.93 2°40.725 22.7364 0.030374 0.167857 49.529134
2009-09-17 12:51:05 51°11.008 2°41.02 22.7631 0.030374 0.167828 49.563958
2009-09-17 12:52:05 51°11.087 2°41.316 22.7834 0.030374 0.167828 49.563958
2009-09-17 12:53:05 51°11.166 2°41.613 22.8027 0.030271 0.167246 49.633606
2009-09-17 12:54:05 51°11.243 2°41.908 22.811 0.030271 0.167249 49.66843
2009-09-17 12:55:30 51°11.351 2°42.321 22.8477 0.030374 0.167837 49.529134
2009-09-17 12:56:30 51°11.429 2°42.611 22.8714 0.030476 0.168413 49.563958
2009-09-17 12:57:30 51°11.488 2°42.908 22.8783 0.030374 0.167901 49.598782
2009-09-17 12:58:30 51°11.533 2°43.21 22.9093 0.030579 0.169078 49.633606
2009-09-17 12:59:30 51°11.575 2°43.516 22.9293 0.030476 0.168466 49.633606
2009-09-17 13:00:30 51°11.614 2°43.821 22.9473 0.030374 0.167887 49.66843
2009-09-17 13:01:30 51°11.659 2°44.123 22.9536 0.030374 0.167893 49.66843
2009-09-17 13:02:30 51°11.71 2°44.427 22.9694 0.030374 0.167884 49.703254
2009-09-17 13:03:30 51°11.757 2°44.731 23.0099 0.030579 0.169078 49.703254
2009-09-17 13:04:30 51°11.799 2°45.036 23.0154 0.030991 0.171345 49.807726
2009-09-17 13:05:30 51°11.839 2°45.341 23.0351 0.030579 0.169016 49.772902
2009-09-17 13:06:30 51°11.879 2°45.648 23.0503 0.030476 0.168443 49.807726
2009-09-17 13:07:30 51°11.923 2°45.955 23.0733 0.030374 0.167913 49.807726
2009-09-17 13:08:30 51°11.967 2°46.26 23.0848 0.030374 0.167928 49.772902
2009-09-17 13:09:30 51°12.011 2°46.563 23.0973 0.030476 0.168475 49.84255
2009-09-17 13:10:30 51°12.052 2°46.866 23.1212 0.030374 0.167933 49.877374
2009-09-17 13:11:30 51°12.095 2°47.166 23.1438 0.030682 0.16967 49.84255
2009-09-17 13:12:30 51°12.169 2°47.452 23.1561 0.030476 0.168501 49.912198
2009-09-17 13:13:30 51°12.261 2°47.721 23.1695 0.030374 0.16796 49.981846
2009-09-17 13:14:30 51°12.36 2°47.986 23.1837 0.030374 0.167933 49.981846
2009-09-17 13:15:30 51°12.451 2°48.259 23.2087 0.030476 0.168516 49.981846
2009-09-17 13:16:30 51°12.535 2°48.538 23.1181 0.032226 0.178342 49.877374
2009-09-17 13:17:30 51°12.618 2°48.817 23.0685 0.030579 0.169231 49.84255
2009-09-17 13:18:30 51°12.71 2°49.091 23.0469 0.030682 0.169788 49.84255
2009-09-17 13:19:30 51°12.803 2°49.362 23.0644 0.030682 0.169782 49.912198
2009-09-17 13:20:30 51°12.895 2°49.632 23.0752 0.030579 0.169202 49.947022
2009-09-17 13:21:30 51°12.987 2°49.899 23.0749 0.030476 0.168625 49.947022
2009-09-17 13:22:30 51°13.081 2°50.17 23.074 0.030374 0.168021 50.016671
2009-09-17 13:23:30 51°13.172 2°50.442 23.1041 0.030374 0.168018 49.981846
2009-09-17 13:24:30 51°13.263 2°50.713 23.1382 0.030374 0.168004 50.016671
2009-09-17 13:25:30 51°13.356 2°50.983 23.1216 0.030374 0.168012 50.051495
2009-09-17 13:26:30 51°13.447 2°51.252 23.1093 0.030682 0.169732 50.086319
2009-09-17 13:27:30 51°13.538 2°51.518 23.1146 0.030374 0.168024 50.086319
2009-09-17 13:28:30 51°13.642 2°51.775 23.1147 0.030374 0.16801 50.086319
2009-09-17 13:29:30 51°13.747 2°52.029 23.1245 0.030476 0.168598 50.086319
2009-09-17 13:30:30 51°13.852 2°52.287 23.1226 0.030374 0.16803 50.086319
2009-09-17 13:31:30 51°13.951 2°52.547 23.1354 0.030374 0.16803 50.155967
2009-09-17 13:32:30 51°14.038 2°52.818 23.1315 0.030374 0.168053 50.190791
2009-09-17 13:33:30 51°14.122 2°53.091 23.1465 0.030271 0.167485 50.225615
2009-09-17 13:34:30 51°14.207 2°53.358 23.1455 0.030374 0.168071 50.190791
2009-09-17 13:35:30 51°14.293 2°53.623 23.1268 0.030991 0.171572 50.225615
2009-09-17 13:36:30 51°14.374 2°53.894 23.1448 0.030374 0.168059 50.225615
2009-09-17 13:37:30 51°14.418 2°54.186 23.1469 0.030271 0.167471 50.260439
2009-09-17 13:38:30 51°14.436 2°54.488 23.1102 0.030271 0.167567 50.295263
2009-09-17 13:39:30 51°14.415 2°54.784 23.1199 0.030271 0.1675 50.330087
2009-09-17 13:40:30 51°14.345 2°55.049 23.112 0.030374 0.1682 50.260439
2009-09-17 13:41:30 51°14.242 2°55.274 22.9624 0.030374 0.168165 50.260439
2009-09-17 13:42:34 51°14.109 2°55.424 23.053 0.030271 0.167596 50.225615
2009-09-17 13:43:34 51°13.981 2°55.522 23.0088 0.030271 0.167549 50.260439
2009-09-17 13:44:34 51°13.866 2°55.61 23.0164 0.030271 0.167535 50.295263
2009-09-17 13:45:34 51°13.759 2°55.711 23.0634 0.030168 0.166923 50.330087
2009-09-17 13:46:34 51°13.706 2°55.816 23.0552 0.030168 0.166897 50.364911
2009-09-17 13:47:34 51°13.678 2°55.908 23.0847 0.030168 0.166882 50.364911
2009-09-17 13:48:34 51°13.667 2°55.949 23.1031 0.030168 0.16687 50.364911
2009-09-17 13:49:34 51°13.662 2°55.96 23.0832 0.030065 0.166291 50.399735
2009-09-17 13:50:34 51°13.662 2°55.96 23.0878 0.030065 0.166291 50.399735